sensor_id;sensor_type;location;lat;lon;timestamp;pressure;altitude;pressure_sealevel;temperature;humidity
12536;BME280;6334;48.696;2.114;2023-07-13T00:01:47;100029.09;;;19.64;48.62
12536;BME280;6334;48.696;2.114;2023-07-13T00:04:18;100034.45;;;19.99;47.77
12536;BME280;6334;48.696;2.114;2023-07-13T00:06:48;100033.86;;;20.16;46.55
12536;BME280;6334;48.696;2.114;2023-07-13T00:09:18;100033.94;;;20.51;46.58
12536;BME280;6334;48.696;2.114;2023-07-13T00:11:53;100032.70;;;19.97;47.05
12536;BME280;6334;48.696;2.114;2023-07-13T00:14:22;100037.12;;;20.20;47.27
12536;BME280;6334;48.696;2.114;2023-07-13T00:16:53;100031.85;;;19.97;47.76
12536;BME280;6334;48.696;2.114;2023-07-13T00:19:23;100031.17;;;20.20;47.01
12536;BME280;6334;48.696;2.114;2023-07-13T00:21:53;100036.95;;;19.70;48.62
12536;BME280;6334;48.696;2.114;2023-07-13T00:24:24;100038.44;;;19.44;48.89
12536;BME280;6334;48.696;2.114;2023-07-13T00:26:54;100044.13;;;19.90;47.54
12536;BME280;6334;48.696;2.114;2023-07-13T00:29:25;100043.43;;;20.30;46.60
12536;BME280;6334;48.696;2.114;2023-07-13T00:31:55;100046.32;;;20.05;47.62
12536;BME280;6334;48.696;2.114;2023-07-13T00:34:26;100041.16;;;19.80;48.38
12536;BME280;6334;48.696;2.114;2023-07-13T00:36:56;100048.94;;;20.12;47.50
12536;BME280;6334;48.696;2.114;2023-07-13T00:39:27;100044.11;;;20.12;47.29
12536;BME280;6334;48.696;2.114;2023-07-13T00:41:57;100049.45;;;20.21;47.46
12536;BME280;6334;48.696;2.114;2023-07-13T00:44:28;100046.94;;;20.39;46.86
12536;BME280;6334;48.696;2.114;2023-07-13T00:46:58;100050.52;;;20.49;47.23
12536;BME280;6334;48.696;2.114;2023-07-13T00:49:29;100054.26;;;20.43;47.30
12536;BME280;6334;48.696;2.114;2023-07-13T00:52:05;100054.85;;;20.21;48.01
12536;BME280;6334;48.696;2.114;2023-07-13T00:54:40;100057.41;;;20.26;47.73
12536;BME280;6334;48.696;2.114;2023-07-13T00:57:07;100055.90;;;20.39;47.09
12536;BME280;6334;48.696;2.114;2023-07-13T00:59:36;100055.15;;;20.68;46.92
12536;BME280;6334;48.696;2.114;2023-07-13T01:02:07;100058.23;;;20.46;47.42
12536;BME280;6334;48.696;2.114;2023-07-13T01:04:37;100065.17;;;20.44;47.34
12536;BME280;6334;48.696;2.114;2023-07-13T01:07:07;100066.95;;;19.96;48.14
12536;BME280;6334;48.696;2.114;2023-07-13T01:09:38;100066.27;;;20.57;48.05
12536;BME280;6334;48.696;2.114;2023-07-13T01:12:08;100072.45;;;20.57;47.79
12536;BME280;6334;48.696;2.114;2023-07-13T01:14:39;100074.66;;;20.53;47.19
12536;BME280;6334;48.696;2.114;2023-07-13T01:17:19;100075.64;;;20.30;48.57
12536;BME280;6334;48.696;2.114;2023-07-13T01:19:43;100072.75;;;20.50;47.37
12536;BME280;6334;48.696;2.114;2023-07-13T01:22:14;100077.25;;;20.09;48.26
12536;BME280;6334;48.696;2.114;2023-07-13T01:24:44;100072.80;;;20.29;48.31
12536;BME280;6334;48.696;2.114;2023-07-13T01:27:15;100070.21;;;20.51;48.10
12536;BME280;6334;48.696;2.114;2023-07-13T01:29:44;100073.64;;;20.62;47.24
12536;BME280;6334;48.696;2.114;2023-07-13T01:32:19;100076.29;;;20.60;46.86
12536;BME280;6334;48.696;2.114;2023-07-13T01:34:45;100077.89;;;20.58;47.62
12536;BME280;6334;48.696;2.114;2023-07-13T01:37:16;100082.66;;;20.22;48.71
12536;BME280;6334;48.696;2.114;2023-07-13T01:39:46;100081.05;;;19.88;49.05
12536;BME280;6334;48.696;2.114;2023-07-13T01:42:16;100085.99;;;20.14;48.60
12536;BME280;6334;48.696;2.114;2023-07-13T01:44:47;100086.67;;;20.51;48.04
12536;BME280;6334;48.696;2.114;2023-07-13T01:47:17;100088.31;;;20.16;49.28
12536;BME280;6334;48.696;2.114;2023-07-13T01:49:48;100085.34;;;20.46;48.11
12536;BME280;6334;48.696;2.114;2023-07-13T01:52:18;100084.52;;;20.49;47.43
12536;BME280;6334;48.696;2.114;2023-07-13T01:54:49;100084.37;;;20.45;48.11
12536;BME280;6334;48.696;2.114;2023-07-13T01:57:19;100085.25;;;20.43;47.93
12536;BME280;6334;48.696;2.114;2023-07-13T01:59:50;100090.21;;;20.16;48.91
12536;BME280;6334;48.696;2.114;2023-07-13T02:02:20;100089.84;;;20.44;47.80
12536;BME280;6334;48.696;2.114;2023-07-13T02:04:51;100087.79;;;20.24;48.04
12536;BME280;6334;48.696;2.114;2023-07-13T02:07:21;100087.48;;;20.36;47.67
12536;BME280;6334;48.696;2.114;2023-07-13T02:09:51;100090.49;;;20.13;48.66
12536;BME280;6334;48.696;2.114;2023-07-13T02:12:22;100092.35;;;20.12;48.75
12536;BME280;6334;48.696;2.114;2023-07-13T02:14:52;100085.78;;;19.90;49.16
12536;BME280;6334;48.696;2.114;2023-07-13T02:17:23;100087.14;;;20.35;48.13
12536;BME280;6334;48.696;2.114;2023-07-13T02:19:53;100086.16;;;20.47;47.14
12536;BME280;6334;48.696;2.114;2023-07-13T02:22:24;100085.86;;;20.35;47.78
12536;BME280;6334;48.696;2.114;2023-07-13T02:24:54;100081.55;;;20.19;47.89
12536;BME280;6334;48.696;2.114;2023-07-13T02:27:25;100080.99;;;19.84;49.07
12536;BME280;6334;48.696;2.114;2023-07-13T02:29:55;100082.75;;;20.44;47.79
12536;BME280;6334;48.696;2.114;2023-07-13T02:32:26;100082.18;;;20.13;48.40
12536;BME280;6334;48.696;2.114;2023-07-13T02:34:56;100082.21;;;20.13;48.04
12536;BME280;6334;48.696;2.114;2023-07-13T02:37:27;100082.84;;;20.46;47.67
12536;BME280;6334;48.696;2.114;2023-07-13T02:39:57;100076.37;;;20.24;48.54
12536;BME280;6334;48.696;2.114;2023-07-13T02:42:27;100077.69;;;20.43;47.34
12536;BME280;6334;48.696;2.114;2023-07-13T02:44:58;100079.16;;;20.28;48.36
12536;BME280;6334;48.696;2.114;2023-07-13T02:47:28;100079.96;;;20.48;47.70
12536;BME280;6334;48.696;2.114;2023-07-13T02:49:59;100077.87;;;20.53;47.80
12536;BME280;6334;48.696;2.114;2023-07-13T02:52:29;100080.35;;;20.52;47.36
12536;BME280;6334;48.696;2.114;2023-07-13T02:55:00;100085.66;;;20.24;48.44
12536;BME280;6334;48.696;2.114;2023-07-13T02:57:30;100090.77;;;20.43;47.91
12536;BME280;6334;48.696;2.114;2023-07-13T03:00:01;100092.77;;;20.09;48.90
12536;BME280;6334;48.696;2.114;2023-07-13T03:02:34;100087.63;;;20.07;48.58
12536;BME280;6334;48.696;2.114;2023-07-13T03:05:05;100092.30;;;20.41;47.93
12536;BME280;6334;48.696;2.114;2023-07-13T03:07:35;100085.30;;;19.92;48.55
12536;BME280;6334;48.696;2.114;2023-07-13T03:10:06;100090.56;;;20.09;48.24
12536;BME280;6334;48.696;2.114;2023-07-13T03:12:36;100095.38;;;20.05;48.35
12536;BME280;6334;48.696;2.114;2023-07-13T03:15:06;100097.56;;;20.09;47.80
12536;BME280;6334;48.696;2.114;2023-07-13T03:17:37;100093.88;;;19.96;48.47
12536;BME280;6334;48.696;2.114;2023-07-13T03:20:09;100094.59;;;19.90;48.62
12536;BME280;6334;48.696;2.114;2023-07-13T03:22:39;100098.16;;;19.80;48.42
12536;BME280;6334;48.696;2.114;2023-07-13T03:25:10;100104.42;;;19.61;49.01
12536;BME280;6334;48.696;2.114;2023-07-13T03:27:40;100105.80;;;19.64;49.11
12536;BME280;6334;48.696;2.114;2023-07-13T03:30:11;100098.68;;;19.90;48.78
12536;BME280;6334;48.696;2.114;2023-07-13T03:32:41;100099.69;;;19.95;49.24
12536;BME280;6334;48.696;2.114;2023-07-13T03:35:11;100102.55;;;19.80;49.37
12536;BME280;6334;48.696;2.114;2023-07-13T03:37:42;100102.38;;;19.97;48.49
12536;BME280;6334;48.696;2.114;2023-07-13T03:40:12;100107.28;;;19.65;49.70
12536;BME280;6334;48.696;2.114;2023-07-13T03:42:43;100106.17;;;19.67;49.95
12536;BME280;6334;48.696;2.114;2023-07-13T03:45:13;100107.09;;;20.07;49.32
12536;BME280;6334;48.696;2.114;2023-07-13T03:47:44;100109.01;;;19.50;49.70
12536;BME280;6334;48.696;2.114;2023-07-13T03:50:14;100105.19;;;19.13;51.03
12536;BME280;6334;48.696;2.114;2023-07-13T03:52:45;100103.06;;;19.58;49.74
12536;BME280;6334;48.696;2.114;2023-07-13T03:55:15;100102.27;;;20.03;49.46
12536;BME280;6334;48.696;2.114;2023-07-13T03:57:46;100099.89;;;19.66;49.85
12536;BME280;6334;48.696;2.114;2023-07-13T04:00:16;100108.73;;;20.17;49.19
12536;BME280;6334;48.696;2.114;2023-07-13T04:02:47;100104.94;;;20.07;48.77
12536;BME280;6334;48.696;2.114;2023-07-13T04:05:17;100102.39;;;19.38;50.86
12536;BME280;6334;48.696;2.114;2023-07-13T04:07:47;100111.09;;;19.83;50.06
12536;BME280;6334;48.696;2.114;2023-07-13T04:10:18;100109.34;;;19.62;51.04
12536;BME280;6334;48.696;2.114;2023-07-13T04:12:48;100116.02;;;19.84;50.21
12536;BME280;6334;48.696;2.114;2023-07-13T04:15:19;100122.42;;;19.90;49.61
12536;BME280;6334;48.696;2.114;2023-07-13T04:17:49;100126.57;;;19.08;52.07
12536;BME280;6334;48.696;2.114;2023-07-13T04:20:20;100125.75;;;19.62;51.18
12536;BME280;6334;48.696;2.114;2023-07-13T04:22:50;100126.34;;;19.37;51.40
12536;BME280;6334;48.696;2.114;2023-07-13T04:25:22;100126.69;;;19.40;52.26
12536;BME280;6334;48.696;2.114;2023-07-13T04:27:52;100127.29;;;19.33;51.88
12536;BME280;6334;48.696;2.114;2023-07-13T04:30:22;100130.25;;;18.96;53.21
12536;BME280;6334;48.696;2.114;2023-07-13T04:32:52;100127.19;;;19.37;51.70
12536;BME280;6334;48.696;2.114;2023-07-13T04:35:23;100128.85;;;19.45;51.79
12536;BME280;6334;48.696;2.114;2023-07-13T04:37:53;100127.51;;;19.59;51.58
12536;BME280;6334;48.696;2.114;2023-07-13T04:40:27;100123.17;;;19.32;53.67
12536;BME280;6334;48.696;2.114;2023-07-13T04:42:54;100124.95;;;19.92;50.97
12536;BME280;6334;48.696;2.114;2023-07-13T04:45:24;100129.02;;;19.71;52.33
12536;BME280;6334;48.696;2.114;2023-07-13T04:47:55;100128.08;;;19.52;52.43
12536;BME280;6334;48.696;2.114;2023-07-13T04:50:25;100129.52;;;20.12;51.19
12536;BME280;6334;48.696;2.114;2023-07-13T04:52:56;100122.12;;;19.92;51.39
12536;BME280;6334;48.696;2.114;2023-07-13T04:55:26;100130.27;;;19.38;52.21
12536;BME280;6334;48.696;2.114;2023-07-13T04:57:57;100131.02;;;19.61;52.06
12536;BME280;6334;48.696;2.114;2023-07-13T05:00:28;100136.75;;;19.52;52.98
12536;BME280;6334;48.696;2.114;2023-07-13T05:02:58;100139.50;;;19.28;53.07
12536;BME280;6334;48.696;2.114;2023-07-13T05:05:28;100148.80;;;19.22;53.58
12536;BME280;6334;48.696;2.114;2023-07-13T05:07:59;100148.74;;;19.14;53.30
12536;BME280;6334;48.696;2.114;2023-07-13T05:10:29;100149.73;;;19.41;53.18
12536;BME280;6334;48.696;2.114;2023-07-13T05:13:00;100150.14;;;18.96;54.33
12536;BME280;6334;48.696;2.114;2023-07-13T05:15:30;100142.81;;;19.18;53.10
12536;BME280;6334;48.696;2.114;2023-07-13T05:18:01;100148.91;;;19.47;52.84
12536;BME280;6334;48.696;2.114;2023-07-13T05:20:31;100148.45;;;19.38;53.19
12536;BME280;6334;48.696;2.114;2023-07-13T05:23:01;100158.33;;;19.58;52.81
12536;BME280;6334;48.696;2.114;2023-07-13T05:25:32;100165.05;;;19.32;54.65
12536;BME280;6334;48.696;2.114;2023-07-13T05:28:02;100162.25;;;19.34;54.42
12536;BME280;6334;48.696;2.114;2023-07-13T05:30:33;100168.84;;;19.44;53.42
12536;BME280;6334;48.696;2.114;2023-07-13T05:33:03;100164.52;;;18.99;54.98
12536;BME280;6334;48.696;2.114;2023-07-13T05:35:34;100166.73;;;18.85;55.38
12536;BME280;6334;48.696;2.114;2023-07-13T05:38:05;100165.91;;;18.99;54.96
12536;BME280;6334;48.696;2.114;2023-07-13T05:40:36;100164.25;;;18.88;55.91
12536;BME280;6334;48.696;2.114;2023-07-13T05:43:06;100173.61;;;18.77;56.87
12536;BME280;6334;48.696;2.114;2023-07-13T05:45:37;100170.46;;;19.24;54.65
12536;BME280;6334;48.696;2.114;2023-07-13T05:48:07;100176.36;;;19.11;56.47
12536;BME280;6334;48.696;2.114;2023-07-13T05:50:37;100177.61;;;18.91;55.84
12536;BME280;6334;48.696;2.114;2023-07-13T05:53:08;100179.41;;;19.42;54.37
12536;BME280;6334;48.696;2.114;2023-07-13T05:55:44;100176.84;;;19.80;53.65
12536;BME280;6334;48.696;2.114;2023-07-13T05:58:17;100175.97;;;19.27;55.18
12536;BME280;6334;48.696;2.114;2023-07-13T06:00:48;100170.25;;;19.67;54.58
12536;BME280;6334;48.696;2.114;2023-07-13T06:03:18;100175.44;;;19.29;56.54
12536;BME280;6334;48.696;2.114;2023-07-13T06:05:49;100177.86;;;19.50;55.58
12536;BME280;6334;48.696;2.114;2023-07-13T06:08:19;100173.70;;;19.67;54.87
12536;BME280;6334;48.696;2.114;2023-07-13T06:10:49;100182.70;;;18.81;57.05
12536;BME280;6334;48.696;2.114;2023-07-13T06:13:20;100183.88;;;19.57;56.31
12536;BME280;6334;48.696;2.114;2023-07-13T06:15:50;100179.41;;;19.24;56.23
12536;BME280;6334;48.696;2.114;2023-07-13T06:18:21;100176.02;;;19.19;56.12
12536;BME280;6334;48.696;2.114;2023-07-13T06:20:51;100192.00;;;19.47;56.32
12536;BME280;6334;48.696;2.114;2023-07-13T06:23:22;100194.05;;;20.51;53.02
12536;BME280;6334;48.696;2.114;2023-07-13T06:25:52;100197.95;;;20.79;52.21
12536;BME280;6334;48.696;2.114;2023-07-13T06:28:23;100197.66;;;20.38;53.77
12536;BME280;6334;48.696;2.114;2023-07-13T06:30:53;100205.91;;;20.77;52.92
12536;BME280;6334;48.696;2.114;2023-07-13T06:33:24;100203.98;;;21.10;52.44
12536;BME280;6334;48.696;2.114;2023-07-13T06:35:54;100205.23;;;20.19;55.33
12536;BME280;6334;48.696;2.114;2023-07-13T06:38:24;100202.86;;;21.23;52.41
12536;BME280;6334;48.696;2.114;2023-07-13T06:40:55;100205.09;;;21.28;53.22
12536;BME280;6334;48.696;2.114;2023-07-13T06:43:25;100208.38;;;21.50;51.94
12536;BME280;6334;48.696;2.114;2023-07-13T06:45:56;100207.67;;;21.15;53.08
12536;BME280;6334;48.696;2.114;2023-07-13T06:48:26;100206.41;;;20.94;53.73
12536;BME280;6334;48.696;2.114;2023-07-13T06:50:57;100206.71;;;21.67;51.89
12536;BME280;6334;48.696;2.114;2023-07-13T06:53:27;100207.92;;;20.70;54.69
12536;BME280;6334;48.696;2.114;2023-07-13T06:55:58;100206.64;;;21.04;53.99
12536;BME280;6334;48.696;2.114;2023-07-13T06:58:28;100207.32;;;21.04;54.25
12536;BME280;6334;48.696;2.114;2023-07-13T07:00:59;100208.74;;;21.57;52.81
12536;BME280;6334;48.696;2.114;2023-07-13T07:03:29;100210.27;;;21.89;52.06
12536;BME280;6334;48.696;2.114;2023-07-13T07:06:13;100206.61;;;21.24;53.99
12536;BME280;6334;48.696;2.114;2023-07-13T07:08:38;100208.19;;;21.64;52.84
12536;BME280;6334;48.696;2.114;2023-07-13T07:11:11;100213.15;;;21.67;52.29
12536;BME280;6334;48.696;2.114;2023-07-13T07:13:39;100212.40;;;21.68;52.63
12536;BME280;6334;48.696;2.114;2023-07-13T07:16:10;100209.19;;;21.85;52.32
12536;BME280;6334;48.696;2.114;2023-07-13T07:18:40;100211.25;;;22.10;51.74
12536;BME280;6334;48.696;2.114;2023-07-13T07:21:11;100215.61;;;22.32;51.24
12536;BME280;6334;48.696;2.114;2023-07-13T07:23:42;100218.30;;;21.94;52.32
12536;BME280;6334;48.696;2.114;2023-07-13T07:26:12;100217.32;;;21.80;51.81
12536;BME280;6334;48.696;2.114;2023-07-13T07:28:42;100225.55;;;21.65;52.64
12536;BME280;6334;48.696;2.114;2023-07-13T07:31:13;100221.27;;;22.08;50.98
12536;BME280;6334;48.696;2.114;2023-07-13T07:33:43;100223.94;;;22.08;51.61
12536;BME280;6334;48.696;2.114;2023-07-13T07:36:14;100224.03;;;22.96;49.16
12536;BME280;6334;48.696;2.114;2023-07-13T07:38:44;100228.13;;;23.29;48.77
12536;BME280;6334;48.696;2.114;2023-07-13T07:41:15;100229.64;;;22.93;49.54
12536;BME280;6334;48.696;2.114;2023-07-13T07:43:45;100229.77;;;22.12;51.32
12536;BME280;6334;48.696;2.114;2023-07-13T07:46:15;100233.28;;;22.49;51.00
12536;BME280;6334;48.696;2.114;2023-07-13T07:48:46;100236.11;;;22.94;50.03
12536;BME280;6334;48.696;2.114;2023-07-13T07:51:16;100233.85;;;22.81;49.18
12536;BME280;6334;48.696;2.114;2023-07-13T07:53:47;100237.05;;;22.39;49.07
12536;BME280;6334;48.696;2.114;2023-07-13T07:56:17;100230.23;;;23.21;48.11
12536;BME280;6334;48.696;2.114;2023-07-13T07:58:48;100234.84;;;23.70;47.36
12536;BME280;6334;48.696;2.114;2023-07-13T08:01:18;100238.06;;;23.29;48.16
12536;BME280;6334;48.696;2.114;2023-07-13T08:03:49;100241.63;;;22.84;49.93
12536;BME280;6334;48.696;2.114;2023-07-13T08:06:19;100246.81;;;22.04;50.39
12536;BME280;6334;48.696;2.114;2023-07-13T08:08:50;100244.01;;;22.30;50.24
12536;BME280;6334;48.696;2.114;2023-07-13T08:11:20;100244.58;;;22.52;49.36
12536;BME280;6334;48.696;2.114;2023-07-13T08:13:50;100250.08;;;23.43;48.91
12536;BME280;6334;48.696;2.114;2023-07-13T08:16:21;100251.01;;;23.03;48.58
12536;BME280;6334;48.696;2.114;2023-07-13T08:18:52;100251.42;;;24.06;47.25
12536;BME280;6334;48.696;2.114;2023-07-13T08:21:23;100247.88;;;23.61;46.76
12536;BME280;6334;48.696;2.114;2023-07-13T08:23:53;100240.06;;;23.15;48.75
12536;BME280;6334;48.696;2.114;2023-07-13T08:26:25;100253.81;;;23.55;47.36
12536;BME280;6334;48.696;2.114;2023-07-13T08:28:55;100249.28;;;22.96;47.43
12536;BME280;6334;48.696;2.114;2023-07-13T08:31:26;100249.73;;;22.80;47.02
12536;BME280;6334;48.696;2.114;2023-07-13T08:33:56;100251.45;;;22.94;45.89
12536;BME280;6334;48.696;2.114;2023-07-13T08:36:27;100252.59;;;23.65;45.43
12536;BME280;6334;48.696;2.114;2023-07-13T08:38:57;100245.94;;;23.06;46.21
12536;BME280;6334;48.696;2.114;2023-07-13T08:41:28;100249.09;;;23.55;45.18
12536;BME280;6334;48.696;2.114;2023-07-13T08:43:58;100246.38;;;22.89;47.09
12536;BME280;6334;48.696;2.114;2023-07-13T08:46:31;100255.22;;;22.20;47.02
12536;BME280;6334;48.696;2.114;2023-07-13T08:49:03;100259.05;;;22.17;47.27
12536;BME280;6334;48.696;2.114;2023-07-13T08:51:38;100252.39;;;22.48;47.05
12536;BME280;6334;48.696;2.114;2023-07-13T08:54:51;100256.01;;;22.56;47.38
12536;BME280;6334;48.696;2.114;2023-07-13T08:56:36;100260.22;;;22.65;47.03
12536;BME280;6334;48.696;2.114;2023-07-13T08:59:10;100258.81;;;22.27;46.98
12536;BME280;6334;48.696;2.114;2023-07-13T09:01:48;100256.05;;;22.40;46.48
12536;BME280;6334;48.696;2.114;2023-07-13T09:04:14;100259.56;;;22.31;46.01
12536;BME280;6334;48.696;2.114;2023-07-13T09:06:58;100257.08;;;22.79;45.29
12536;BME280;6334;48.696;2.114;2023-07-13T09:09:40;100252.70;;;23.22;44.53
12536;BME280;6334;48.696;2.114;2023-07-13T09:12:19;100257.63;;;22.91;43.78
12536;BME280;6334;48.696;2.114;2023-07-13T09:14:48;100253.61;;;23.89;42.14
12536;BME280;6334;48.696;2.114;2023-07-13T09:17:21;100252.03;;;23.34;43.59
12536;BME280;6334;48.696;2.114;2023-07-13T09:19:58;100250.00;;;22.35;44.25
12536;BME280;6334;48.696;2.114;2023-07-13T09:22:27;100255.40;;;22.11;44.61
12536;BME280;6334;48.696;2.114;2023-07-13T09:25:18;100253.23;;;21.75;45.51
12536;BME280;6334;48.696;2.114;2023-07-13T09:27:38;100247.48;;;21.97;44.38
12536;BME280;6334;48.696;2.114;2023-07-13T09:30:21;100252.83;;;21.80;44.93
12536;BME280;6334;48.696;2.114;2023-07-13T09:32:48;100256.02;;;22.33;44.02
12536;BME280;6334;48.696;2.114;2023-07-13T09:35:19;100258.08;;;22.15;45.28
12536;BME280;6334;48.696;2.114;2023-07-13T09:37:47;100252.48;;;22.98;44.01
12536;BME280;6334;48.696;2.114;2023-07-13T09:40:22;100249.60;;;22.30;45.15
12536;BME280;6334;48.696;2.114;2023-07-13T09:42:52;100253.75;;;22.51;45.82
12536;BME280;6334;48.696;2.114;2023-07-13T09:45:28;100257.33;;;22.62;44.80
12536;BME280;6334;48.696;2.114;2023-07-13T09:48:04;100254.13;;;22.32;45.76
12536;BME280;6334;48.696;2.114;2023-07-13T09:50:31;100257.95;;;22.44;45.84
12536;BME280;6334;48.696;2.114;2023-07-13T09:53:02;100259.84;;;22.38;45.11
12536;BME280;6334;48.696;2.114;2023-07-13T09:55:34;100262.06;;;23.44;44.69
12536;BME280;6334;48.696;2.114;2023-07-13T09:58:16;100258.45;;;22.88;46.20
12536;BME280;6334;48.696;2.114;2023-07-13T10:00:53;100259.58;;;23.60;44.15
12536;BME280;6334;48.696;2.114;2023-07-13T10:03:18;100260.64;;;23.40;44.94
12536;BME280;6334;48.696;2.114;2023-07-13T10:05:48;100265.50;;;22.79;46.74
12536;BME280;6334;48.696;2.114;2023-07-13T10:08:28;100262.20;;;23.16;45.83
12536;BME280;6334;48.696;2.114;2023-07-13T10:11:00;100266.12;;;23.08;45.53
12536;BME280;6334;48.696;2.114;2023-07-13T10:13:34;100263.66;;;23.17;44.47
12536;BME280;6334;48.696;2.114;2023-07-13T10:16:04;100267.30;;;23.25;44.19
12536;BME280;6334;48.696;2.114;2023-07-13T10:18:49;100263.89;;;23.48;42.14
12536;BME280;6334;48.696;2.114;2023-07-13T10:21:19;100264.27;;;23.09;43.86
12536;BME280;6334;48.696;2.114;2023-07-13T10:23:50;100272.79;;;22.95;43.59
12536;BME280;6334;48.696;2.114;2023-07-13T10:26:23;100270.09;;;22.48;44.55
12536;BME280;6334;48.696;2.114;2023-07-13T10:28:53;100272.17;;;22.83;44.44
12536;BME280;6334;48.696;2.114;2023-07-13T10:31:22;100286.41;;;22.55;44.23
12536;BME280;6334;48.696;2.114;2023-07-13T10:33:53;100290.45;;;22.77;44.56
12536;BME280;6334;48.696;2.114;2023-07-13T10:36:46;100295.80;;;22.58;43.95
12536;BME280;6334;48.696;2.114;2023-07-13T10:39:14;100294.83;;;23.00;44.24
12536;BME280;6334;48.696;2.114;2023-07-13T10:41:41;100307.75;;;22.46;45.56
12536;BME280;6334;48.696;2.114;2023-07-13T10:44:27;100304.17;;;22.32;45.93
12536;BME280;6334;48.696;2.114;2023-07-13T10:46:58;100307.04;;;22.22;46.13
12536;BME280;6334;48.696;2.114;2023-07-13T10:49:29;100303.20;;;22.38;45.70
12536;BME280;6334;48.696;2.114;2023-07-13T10:51:56;100307.69;;;22.46;46.19
12536;BME280;6334;48.696;2.114;2023-07-13T10:54:31;100301.41;;;23.00;44.90
12536;BME280;6334;48.696;2.114;2023-07-13T10:57:17;100298.33;;;23.17;44.90
12536;BME280;6334;48.696;2.114;2023-07-13T10:59:47;100306.30;;;23.17;45.03
12536;BME280;6334;48.696;2.114;2023-07-13T11:02:23;100301.41;;;22.98;45.69
12536;BME280;6334;48.696;2.114;2023-07-13T11:04:53;100302.06;;;23.19;45.63
12536;BME280;6334;48.696;2.114;2023-07-13T11:07:24;100293.23;;;22.81;46.08
12536;BME280;6334;48.696;2.114;2023-07-13T11:09:54;100298.85;;;22.73;45.98
12536;BME280;6334;48.696;2.114;2023-07-13T11:17:34;100289.48;;;23.58;44.30
12536;BME280;6334;48.696;2.114;2023-07-13T11:22:46;100281.28;;;23.98;42.43
12536;BME280;6334;48.696;2.114;2023-07-13T11:33:23;100270.91;;;23.95;43.79
12536;BME280;6334;48.696;2.114;2023-07-13T11:36:15;100268.44;;;23.16;43.21
12536;BME280;6334;48.696;2.114;2023-07-13T11:38:51;100270.75;;;23.46;42.88
12536;BME280;6334;48.696;2.114;2023-07-13T11:41:18;100265.08;;;23.36;41.38
12536;BME280;6334;48.696;2.114;2023-07-13T11:43:51;100256.24;;;23.26;41.48
12536;BME280;6334;48.696;2.114;2023-07-13T11:46:25;100252.77;;;23.08;43.08
12536;BME280;6334;48.696;2.114;2023-07-13T11:48:54;100260.28;;;23.37;43.73
12536;BME280;6334;48.696;2.114;2023-07-13T11:51:31;100256.49;;;22.84;41.46
12536;BME280;6334;48.696;2.114;2023-07-13T11:54:06;100261.17;;;22.61;42.18
12536;BME280;6334;48.696;2.114;2023-07-13T11:56:33;100262.86;;;22.41;42.25
12536;BME280;6334;48.696;2.114;2023-07-13T11:59:06;100262.92;;;22.88;42.01
12536;BME280;6334;48.696;2.114;2023-07-13T12:01:35;100261.51;;;23.07;42.35
12536;BME280;6334;48.696;2.114;2023-07-13T12:04:06;100257.77;;;22.63;41.93
12536;BME280;6334;48.696;2.114;2023-07-13T12:06:36;100261.92;;;23.07;42.41
12536;BME280;6334;48.696;2.114;2023-07-13T12:09:13;100255.45;;;23.30;41.96
12536;BME280;6334;48.696;2.114;2023-07-13T12:11:40;100251.84;;;23.33;41.51
12536;BME280;6334;48.696;2.114;2023-07-13T12:14:16;100239.97;;;23.63;40.38
12536;BME280;6334;48.696;2.114;2023-07-13T12:16:46;100245.92;;;23.95;41.24
12536;BME280;6334;48.696;2.114;2023-07-13T12:19:23;100242.77;;;23.86;42.10
12536;BME280;6334;48.696;2.114;2023-07-13T12:21:53;100238.05;;;24.25;40.99
12536;BME280;6334;48.696;2.114;2023-07-13T12:24:23;100239.45;;;24.19;40.96
12536;BME280;6334;48.696;2.114;2023-07-13T12:27:00;100242.83;;;24.18;39.65
12536;BME280;6334;48.696;2.114;2023-07-13T12:29:31;100239.23;;;23.41;40.11
12536;BME280;6334;48.696;2.114;2023-07-13T12:32:00;100238.48;;;23.74;39.58
12536;BME280;6334;48.696;2.114;2023-07-13T12:34:31;100239.28;;;23.78;39.83
12536;BME280;6334;48.696;2.114;2023-07-13T12:37:01;100234.31;;;23.46;40.69
12536;BME280;6334;48.696;2.114;2023-07-13T12:39:35;100237.72;;;23.09;39.91
12536;BME280;6334;48.696;2.114;2023-07-13T12:42:21;100237.91;;;23.21;40.52
12536;BME280;6334;48.696;2.114;2023-07-13T12:44:49;100238.23;;;23.01;40.78
12536;BME280;6334;48.696;2.114;2023-07-13T12:47:20;100235.95;;;23.80;39.82
12536;BME280;6334;48.696;2.114;2023-07-13T12:49:53;100238.16;;;23.41;40.04
12536;BME280;6334;48.696;2.114;2023-07-13T12:52:22;100240.08;;;23.46;39.80
12536;BME280;6334;48.696;2.114;2023-07-13T12:54:57;100234.98;;;23.03;39.79
12536;BME280;6334;48.696;2.114;2023-07-13T12:57:26;100236.23;;;23.25;39.41
12536;BME280;6334;48.696;2.114;2023-07-13T12:59:57;100228.60;;;23.76;39.31
12536;BME280;6334;48.696;2.114;2023-07-13T13:02:32;100231.66;;;23.60;39.01
12536;BME280;6334;48.696;2.114;2023-07-13T13:05:01;100238.42;;;23.55;38.54
12536;BME280;6334;48.696;2.114;2023-07-13T13:07:31;100234.43;;;23.47;38.71
12536;BME280;6334;48.696;2.114;2023-07-13T13:10:04;100231.50;;;23.96;37.98
12536;BME280;6334;48.696;2.114;2023-07-13T13:12:32;100225.05;;;23.96;36.18
12536;BME280;6334;48.696;2.114;2023-07-13T13:15:02;100228.55;;;23.86;38.22
12536;BME280;6334;48.696;2.114;2023-07-13T13:17:33;100220.53;;;23.81;38.13
12536;BME280;6334;48.696;2.114;2023-07-13T13:20:16;100225.98;;;23.76;37.76
12536;BME280;6334;48.696;2.114;2023-07-13T13:22:45;100227.13;;;24.33;38.96
12536;BME280;6334;48.696;2.114;2023-07-13T13:25:15;100226.55;;;24.06;38.37
12536;BME280;6334;48.696;2.114;2023-07-13T13:27:46;100225.80;;;23.58;38.51
12536;BME280;6334;48.696;2.114;2023-07-13T13:30:17;100226.57;;;24.22;37.43
12536;BME280;6334;48.696;2.114;2023-07-13T13:32:47;100226.27;;;24.49;36.67
12536;BME280;6334;48.696;2.114;2023-07-13T13:35:18;100234.59;;;24.33;37.67
12536;BME280;6334;48.696;2.114;2023-07-13T13:37:47;100230.89;;;24.09;36.39